Time;durP1;ratioP1;P1;durP2;ratioP2;P2;SDS_P1;SDS_P2;PMS_P1;PMS_P2;Temp;Humidity;BMP_temperature;BMP_pressure;BME280_temperature;BME280_humidity;BME280_pressure;Samples;Min_cycle;Max_cycle;Signal;HPM_P1;HPM_P2
2022/06/04 00:01:31;;;;;;;3.35;2.67;;;19.60;51.90;;;;;;6244629;23;20380;-85
2022/06/04 00:03:57;;;;;;;4.68;2.53;;;19.50;51.90;;;;;;6244672;23;20171;-85
2022/06/04 00:06:23;;;;;;;8.07;2.50;;;19.50;52.00;;;;;;6244368;23;20212;-86
2022/06/04 00:08:48;;;;;;;5.27;2.40;;;19.40;52.40;;;;;;6245256;22;20306;-86
2022/06/04 00:16:52;;;;;;;6.43;2.80;;;19.40;53.20;;;;;;6245657;23;20171;-85
2022/06/04 00:19:17;;;;;;;2.83;2.60;;;19.30;53.30;;;;;;6244515;23;20172;-85
2022/06/04 00:21:43;;;;;;;5.80;2.63;;;19.20;52.90;;;;;;6245144;22;20717;-85
2022/06/04 00:24:09;;;;;;;6.20;3.10;;;19.10;52.90;;;;;;6246370;22;20160;-86
2022/06/04 00:26:36;;;;;;;6.20;3.00;;;19.10;53.30;;;;;;6244269;22;20239;-86
2022/06/04 00:29:05;;;;;;;6.88;2.90;;;19.10;52.90;;;;;;6245571;23;20648;-86
2022/06/04 00:31:30;;;;;;;3.42;2.45;;;19.00;52.80;;;;;;6247165;22;20152;-87
2022/06/04 00:33:56;;;;;;;4.20;3.30;;;19.00;53.00;;;;;;6246938;22;20643;-85
2022/06/04 00:36:22;;;;;;;4.63;2.63;;;19.00;52.70;;;;;;6245717;22;20437;-86
2022/06/04 00:38:48;;;;;;;4.93;3.00;;;18.90;52.80;;;;;;6247016;22;20168;-86
2022/06/04 00:41:44;;;;;;;6.72;2.50;;;18.90;52.70;;;;;;6245013;23;20163;-86
2022/06/04 00:44:09;;;;;;;5.95;2.70;;;18.90;53.00;;;;;;6245560;23;20598;-86
2022/06/04 00:46:41;;;;;;;6.13;2.57;;;18.90;52.90;;;;;;6246000;23;20190;-86
2022/06/04 00:49:09;;;;;;;3.55;2.53;;;18.90;53.60;;;;;;6245773;23;20529;-86
2022/06/04 00:51:36;;;;;;;3.85;3.00;;;18.80;53.90;;;;;;6244272;23;20156;-86
2022/06/04 00:54:02;;;;;;;5.57;3.45;;;18.80;55.00;;;;;;6245288;23;20214;-86
2022/06/04 00:56:45;;;;;;;3.85;2.60;;;18.70;55.70;;;;;;6245948;23;20621;-86
2022/06/04 00:59:32;;;;;;;4.22;2.92;;;18.60;56.60;;;;;;6246428;23;20179;-86
2022/06/04 01:02:21;;;;;;;3.28;2.95;;;18.50;56.60;;;;;;6248252;23;20145;-86
2022/06/04 01:05:17;;;;;;;5.05;2.70;;;18.40;55.90;;;;;;6246980;22;20603;-86
2022/06/04 01:08:12;;;;;;;7.97;3.05;;;18.30;56.30;;;;;;6245405;22;20196;-86
2022/06/04 01:11:15;;;;;;;3.85;2.75;;;18.30;56.20;;;;;;6225889;23;20170;-86
2022/06/04 01:14:09;;;;;;;4.97;2.95;;;18.30;55.80;;;;;;6246848;23;20638;-86
2022/06/04 01:16:58;;;;;;;3.85;3.10;;;18.30;55.40;;;;;;6237249;23;20157;-86
2022/06/04 01:19:52;;;;;;;3.40;2.92;;;18.30;54.90;;;;;;6193341;22;20168;-86
2022/06/04 01:22:33;;;;;;;3.88;2.70;;;18.30;54.90;;;;;;6248256;23;20191;-86
2022/06/04 01:25:05;;;;;;;2.85;2.65;;;18.20;54.80;;;;;;6251036;22;20161;-86
2022/06/04 01:27:44;;;;;;;9.50;3.42;;;18.20;55.00;;;;;;6248898;22;20207;-86
2022/06/04 01:30:18;;;;;;;5.40;2.55;;;18.20;54.70;;;;;;6250465;23;20176;-85
2022/06/04 01:32:53;;;;;;;4.60;3.33;;;18.20;54.70;;;;;;6246073;23;20180;-86
2022/06/04 01:35:27;;;;;;;4.15;3.22;;;18.10;54.70;;;;;;6245673;23;20598;-86
2022/06/04 01:38:02;;;;;;;5.40;3.13;;;18.20;54.70;;;;;;6245127;23;20176;-87
2022/06/04 01:43:25;;;;;;;3.67;3.28;;;18.20;54.40;;;;;;6247775;23;20144;-86
2022/06/04 01:45:53;;;;;;;5.53;3.20;;;18.10;54.70;;;;;;6245742;23;20167;-86
2022/06/04 01:48:21;;;;;;;4.72;2.67;;;18.20;54.70;;;;;;6245265;22;20184;-86
2022/06/04 01:51:07;;;;;;;3.00;2.80;;;18.20;54.80;;;;;;6246301;23;20234;-86
2022/06/04 01:53:37;;;;;;;4.43;3.00;;;18.20;54.70;;;;;;6245864;23;20176;-86
2022/06/04 01:56:32;;;;;;;7.43;3.17;;;18.20;54.60;;;;;;6246151;23;20152;-86
2022/06/04 01:59:25;;;;;;;5.78;3.10;;;18.10;54.70;;;;;;6225415;22;20173;-86
2022/06/04 02:01:54;;;;;;;6.32;3.35;;;18.00;54.80;;;;;;6230505;23;20164;-85
2022/06/04 02:04:31;;;;;;;3.50;3.20;;;18.00;55.00;;;;;;6246045;22;20164;-86
2022/06/04 02:10:02;;;;;;;6.78;3.35;;;17.90;55.30;;;;;;6248165;23;20148;-86
2022/06/04 02:12:28;;;;;;;6.70;3.90;;;17.90;55.10;;;;;;6248122;23;20168;-86
2022/06/04 02:14:54;;;;;;;4.50;3.08;;;17.80;55.10;;;;;;6246666;22;20168;-86
2022/06/04 02:17:24;;;;;;;3.70;2.95;;;17.70;55.30;;;;;;6245125;22;20173;-86
2022/06/04 02:19:50;;;;;;;4.03;3.35;;;17.80;55.20;;;;;;6245663;23;20240;-86
2022/06/04 02:22:16;;;;;;;5.57;3.90;;;17.70;55.10;;;;;;6246435;22;20228;-85
2022/06/04 02:24:43;;;;;;;3.28;2.40;;;17.70;54.90;;;;;;6245597;23;20224;-86
2022/06/04 02:27:09;;;;;;;5.50;3.28;;;17.70;55.20;;;;;;6244978;22;20191;-86
2022/06/04 02:29:38;;;;;;;3.45;3.15;;;17.60;55.10;;;;;;6246173;22;20733;-86
2022/06/04 02:32:09;;;;;;;3.83;3.30;;;17.60;54.90;;;;;;6246073;22;20521;-86
2022/06/04 02:34:56;;;;;;;3.08;2.58;;;17.60;54.90;;;;;;6246383;23;20152;-86
2022/06/04 02:38:04;;;;;;;3.15;2.85;;;17.60;54.70;;;;;;6245974;23;20176;-86
2022/06/04 02:40:50;;;;;;;3.90;3.22;;;17.50;54.70;;;;;;6248458;23;20594;-87
2022/06/04 02:43:40;;;;;;;5.53;3.13;;;17.50;55.00;;;;;;6222895;22;20160;-86
2022/06/04 02:46:14;;;;;;;6.80;3.50;;;17.50;54.90;;;;;;6249210;23;20187;-86
2022/06/04 02:49:04;;;;;;;3.88;3.47;;;17.40;54.90;;;;;;6249900;23;20184;-86
2022/06/04 02:51:36;;;;;;;5.07;3.28;;;17.40;55.20;;;;;;6248722;23;20152;-86
2022/06/04 02:54:14;;;;;;;7.25;3.50;;;17.40;55.60;;;;;;6250296;22;20235;-86
2022/06/04 02:56:42;;;;;;;4.30;3.83;;;17.30;55.70;;;;;;6231754;23;20160;-87
2022/06/04 02:59:12;;;;;;;3.05;2.78;;;17.30;55.70;;;;;;6253880;23;20179;-86
2022/06/04 03:01:42;;;;;;;4.30;3.55;;;17.20;55.80;;;;;;6248312;23;20595;-86
2022/06/04 03:04:09;;;;;;;4.75;3.20;;;17.20;56.40;;;;;;6247733;22;20160;-86
2022/06/04 03:06:35;;;;;;;5.97;2.95;;;17.10;56.50;;;;;;6247548;23;20501;-87
2022/06/04 03:09:03;;;;;;;4.33;3.83;;;17.20;56.20;;;;;;6255411;22;20234;-87
2022/06/04 03:11:29;;;;;;;3.90;3.30;;;17.10;56.30;;;;;;6267750;22;20435;-87
2022/06/04 03:13:55;;;;;;;5.55;3.88;;;17.00;56.20;;;;;;6268028;23;20140;-86
2022/06/04 03:16:21;;;;;;;7.80;3.73;;;17.00;56.30;;;;;;6267033;22;20167;-86
2022/06/04 03:18:47;;;;;;;4.47;3.60;;;16.90;56.60;;;;;;6267525;22;20226;-87
2022/06/04 03:21:13;;;;;;;7.28;4.18;;;16.90;57.00;;;;;;6261239;22;20164;-85
2022/06/04 03:23:39;;;;;;;3.60;3.30;;;16.90;56.90;;;;;;6247177;22;20156;-85
2022/06/04 03:26:05;;;;;;;3.80;3.20;;;16.90;56.70;;;;;;6246396;22;20386;-85
2022/06/04 03:28:31;;;;;;;10.30;4.55;;;16.80;56.70;;;;;;6245339;23;20403;-86
2022/06/04 03:30:57;;;;;;;4.80;3.60;;;16.80;57.00;;;;;;6245387;22;20210;-86
2022/06/04 03:33:23;;;;;;;8.30;5.13;;;16.80;56.80;;;;;;6245081;22;20263;-85
2022/06/04 03:35:49;;;;;;;4.55;3.47;;;16.70;56.80;;;;;;6244819;22;20152;-85
2022/06/04 03:38:15;;;;;;;4.25;3.28;;;16.70;57.00;;;;;;6244857;23;20200;-85
2022/06/04 03:40:41;;;;;;;5.47;3.60;;;16.60;57.00;;;;;;6244874;23;20153;-86
2022/06/04 03:43:07;;;;;;;5.87;3.57;;;16.60;57.10;;;;;;6245141;22;20160;-85
2022/06/04 03:45:32;;;;;;;4.20;3.80;;;16.60;57.30;;;;;;6244857;22;20243;-85
2022/06/04 03:47:58;;;;;;;6.00;3.80;;;16.60;57.20;;;;;;6246936;22;20196;-85
2022/06/04 03:50:29;;;;;;;3.70;3.40;;;16.60;57.00;;;;;;6245823;23;20415;-85
2022/06/04 03:52:55;;;;;;;3.30;3.00;;;16.50;57.10;;;;;;6245665;23;20187;-85
2022/06/04 03:55:24;;;;;;;3.47;3.20;;;16.60;56.90;;;;;;6245803;22;20153;-86
2022/06/04 03:57:52;;;;;;;4.95;3.70;;;16.50;56.90;;;;;;6245840;22;20184;-86
2022/06/04 04:00:20;;;;;;;3.80;3.47;;;16.50;57.10;;;;;;6246029;22;20156;-86
2022/06/04 04:02:53;;;;;;;6.55;3.85;;;16.50;57.20;;;;;;6246351;23;20148;-85
2022/06/04 04:05:26;;;;;;;6.35;3.45;;;16.40;57.00;;;;;;6244180;22;20161;-86
2022/06/04 04:07:54;;;;;;;3.67;3.38;;;16.40;57.30;;;;;;6243745;22;20293;-86
2022/06/04 04:10:20;;;;;;;4.20;2.95;;;16.40;57.10;;;;;;6244048;22;20212;-86
2022/06/04 04:12:46;;;;;;;4.53;3.90;;;16.50;56.90;;;;;;6245808;23;20226;-85
2022/06/04 04:15:13;;;;;;;3.57;3.20;;;16.50;56.90;;;;;;6244449;23;20152;-85
2022/06/04 04:17:40;;;;;;;4.03;3.67;;;16.50;56.70;;;;;;6244914;22;20387;-85
2022/06/04 04:20:19;;;;;;;5.13;3.58;;;16.60;56.40;;;;;;6244255;22;20157;-85
2022/06/04 04:22:45;;;;;;;4.72;3.42;;;16.60;56.10;;;;;;6245397;22;20137;-87
2022/06/04 04:25:13;;;;;;;4.72;4.28;;;16.50;56.50;;;;;;6244264;23;20238;-88
2022/06/04 04:27:39;;;;;;;6.28;3.47;;;16.50;56.10;;;;;;6243070;23;20181;-85
2022/06/04 04:30:09;;;;;;;8.93;3.90;;;16.50;56.40;;;;;;6244286;22;20208;-86
2022/06/04 04:32:35;;;;;;;3.90;3.60;;;16.40;57.00;;;;;;6245349;22;20172;-86
2022/06/04 04:35:31;;;;;;;5.60;3.85;;;16.40;56.50;;;;;;6243703;22;20156;-86
2022/06/04 04:37:58;;;;;;;3.38;3.08;;;16.50;56.60;;;;;;6243242;23;20673;-86
2022/06/04 04:40:26;;;;;;;5.25;3.53;;;16.40;56.40;;;;;;6218364;23;20717;-85
2022/06/04 04:42:52;;;;;;;7.13;3.90;;;16.40;56.60;;;;;;6243730;23;20152;-85
2022/06/04 04:45:20;;;;;;;4.87;3.20;;;16.50;56.30;;;;;;6245771;22;20222;-85
2022/06/04 04:47:47;;;;;;;3.72;3.13;;;16.40;56.20;;;;;;6243269;23;20449;-85
2022/06/04 04:50:19;;;;;;;3.70;3.40;;;16.40;56.30;;;;;;6245613;22;20172;-85
2022/06/04 04:52:46;;;;;;;4.82;4.43;;;16.40;56.40;;;;;;6246147;22;20256;-86
2022/06/04 04:55:12;;;;;;;6.47;3.65;;;16.40;56.60;;;;;;6244650;22;20175;-85
2022/06/04 04:57:38;;;;;;;4.47;3.10;;;16.30;56.50;;;;;;6244993;22;20173;-86
2022/06/04 05:00:06;;;;;;;5.67;3.60;;;16.30;57.30;;;;;;6245716;22;20152;-85
2022/06/04 05:02:33;;;;;;;4.78;3.47;;;16.40;56.10;;;;;;6246456;22;20145;-85
2022/06/04 05:04:59;;;;;;;5.53;3.55;;;16.30;56.40;;;;;;6244563;23;20222;-85
2022/06/04 05:07:24;;;;;;;8.23;3.40;;;16.30;56.30;;;;;;6245116;22;20188;-85
2022/06/04 05:09:50;;;;;;;3.97;3.53;;;16.30;56.40;;;;;;6244584;23;20188;-86
2022/06/04 05:12:16;;;;;;;7.47;4.40;;;16.20;56.60;;;;;;6244282;22;20191;-86
2022/06/04 05:14:42;;;;;;;6.30;3.93;;;16.20;56.80;;;;;;6218645;23;20153;-86
2022/06/04 05:17:08;;;;;;;5.82;4.00;;;16.20;56.90;;;;;;6243148;23;20160;-86
2022/06/04 05:19:34;;;;;;;5.23;3.80;;;16.20;56.90;;;;;;6245488;22;20152;-86
2022/06/04 05:22:00;;;;;;;4.10;3.80;;;16.20;57.20;;;;;;6243399;23;20228;-86
2022/06/04 05:24:32;;;;;;;3.90;3.50;;;16.20;58.00;;;;;;6243708;22;20383;-86
2022/06/04 05:26:59;;;;;;;6.90;4.07;;;16.20;57.20;;;;;;6243069;23;20176;-86
2022/06/04 05:29:28;;;;;;;4.63;3.85;;;16.20;57.30;;;;;;6245409;22;20157;-86
2022/06/04 05:31:54;;;;;;;6.60;4.10;;;16.20;57.50;;;;;;6245273;22;20319;-86
2022/06/04 05:34:20;;;;;;;7.00;4.05;;;16.20;57.50;;;;;;6243869;23;20202;-86
2022/06/04 05:36:47;;;;;;;9.43;4.65;;;16.20;57.50;;;;;;6242751;23;20152;-86
2022/06/04 05:39:14;;;;;;;5.18;4.68;;;16.20;57.60;;;;;;6243526;22;20182;-87
2022/06/04 05:41:41;;;;;;;9.55;5.30;;;16.30;57.80;;;;;;6246734;22;20153;-87
2022/06/04 05:44:07;;;;;;;7.13;4.28;;;16.40;57.30;;;;;;6245177;22;20152;-86
2022/06/04 05:46:33;;;;;;;5.68;5.10;;;16.40;57.40;;;;;;6245668;22;20166;-86
2022/06/04 05:49:00;;;;;;;4.80;4.30;;;16.40;57.40;;;;;;6244607;22;20172;-88
2022/06/04 05:51:29;;;;;;;7.35;4.20;;;16.40;57.40;;;;;;6246161;23;20251;-88
2022/06/04 05:53:56;;;;;;;5.05;4.60;;;16.30;57.70;;;;;;6247167;22;20203;-86
2022/06/04 05:56:25;;;;;;;11.75;4.55;;;16.40;57.70;;;;;;6245640;23;20145;-86
2022/06/04 05:59:02;;;;;;;7.35;4.15;;;16.50;57.70;;;;;;6245829;22;20169;-86
2022/06/04 06:01:31;;;;;;;5.60;4.57;;;16.50;57.70;;;;;;6245580;23;20546;-87
2022/06/04 06:03:57;;;;;;;6.13;4.15;;;16.50;57.50;;;;;;6245563;22;20599;-86
2022/06/04 06:06:27;;;;;;;5.80;4.22;;;16.60;57.30;;;;;;6247674;22;20591;-87
2022/06/04 06:09:05;;;;;;;8.50;5.00;;;16.70;57.20;;;;;;6244871;22;20624;-86
2022/06/04 06:11:31;;;;;;;5.97;4.63;;;16.70;57.30;;;;;;6246867;23;20202;-86
2022/06/04 06:13:57;;;;;;;7.00;4.37;;;16.70;57.00;;;;;;6248604;22;20176;-88
2022/06/04 06:16:26;;;;;;;7.93;5.00;;;16.70;57.50;;;;;;6246777;23;20398;-87
2022/06/04 06:18:55;;;;;;;8.00;4.40;;;16.70;57.40;;;;;;6219590;23;20187;-87
2022/06/04 06:21:26;;;;;;;5.95;5.05;;;16.70;57.50;;;;;;6245166;23;20235;-87
2022/06/04 06:23:54;;;;;;;5.00;4.50;;;16.70;57.30;;;;;;6245513;23;20152;-87
2022/06/04 06:26:23;;;;;;;7.95;4.93;;;16.70;57.50;;;;;;6244623;23;20160;-87
2022/06/04 06:28:49;;;;;;;5.80;5.10;;;16.70;57.60;;;;;;6244247;23;20176;-87
2022/06/04 06:31:19;;;;;;;7.70;5.27;;;16.70;58.00;;;;;;6247485;23;20167;-88
2022/06/04 06:33:46;;;;;;;5.20;4.72;;;16.70;58.70;;;;;;6246105;23;20419;-87
2022/06/04 06:36:14;;;;;;;5.07;4.60;;;16.80;58.30;;;;;;6247787;22;20152;-87
2022/06/04 06:38:52;;;;;;;6.88;5.00;;;16.90;58.00;;;;;;6246890;22;20223;-87
2022/06/04 06:41:20;;;;;;;7.90;5.53;;;17.00;57.40;;;;;;6245909;23;20145;-87
2022/06/04 06:43:47;;;;;;;6.95;6.20;;;17.10;56.90;;;;;;6246088;22;20157;-87
2022/06/04 06:46:33;;;;;;;6.40;5.15;;;17.10;56.90;;;;;;6246425;23;20156;-86
2022/06/04 06:49:04;;;;;;;7.13;4.82;;;17.20;56.90;;;;;;6245062;23;20180;-86
2022/06/04 06:51:34;;;;;;;5.80;5.20;;;17.20;56.70;;;;;;6247917;22;20149;-86
2022/06/04 06:53:59;;;;;;;8.55;5.25;;;17.20;57.00;;;;;;6248979;22;20180;-87
2022/06/04 06:59:51;;;;;;;5.50;5.00;;;17.30;57.00;;;;;;6251288;23;20366;-87
2022/06/04 07:02:17;;;;;;;6.03;4.82;;;17.50;56.60;;;;;;6249486;22;20163;-86
2022/06/04 07:04:42;;;;;;;8.63;5.27;;;17.70;56.20;;;;;;6246872;23;20547;-87
2022/06/04 07:07:08;;;;;;;6.43;5.40;;;17.70;56.30;;;;;;6248067;22;20476;-89
2022/06/04 07:09:37;;;;;;;6.57;5.97;;;17.70;56.30;;;;;;6248960;23;20163;-86
2022/06/04 07:12:04;;;;;;;6.05;5.20;;;17.70;56.10;;;;;;6248485;22;20180;-87
2022/06/04 07:14:30;;;;;;;6.38;5.30;;;17.60;56.50;;;;;;6249763;23;20587;-87
2022/06/04 07:16:57;;;;;;;7.37;6.57;;;17.60;56.50;;;;;;6251195;22;20162;-86
2022/06/04 07:19:30;;;;;;;10.23;5.43;;;17.50;56.70;;;;;;6248352;22;20383;-86
2022/06/04 07:21:56;;;;;;;6.68;6.07;;;17.40;57.50;;;;;;6247083;23;20222;-86
2022/06/04 07:24:23;;;;;;;10.82;6.65;;;17.50;57.50;;;;;;6248212;22;20156;-86
2022/06/04 07:26:49;;;;;;;6.72;6.03;;;17.50;57.60;;;;;;6249363;22;20223;-86
2022/06/04 07:29:15;;;;;;;7.10;6.40;;;17.60;57.70;;;;;;6247424;23;20567;-88
2022/06/04 07:31:41;;;;;;;7.10;6.40;;;17.60;57.90;;;;;;6247321;22;20183;-87
2022/06/04 07:34:07;;;;;;;7.70;6.87;;;17.70;57.50;;;;;;6246262;22;20152;-87
2022/06/04 07:36:40;;;;;;;8.90;7.00;;;17.90;57.10;;;;;;6246323;23;20380;-87
2022/06/04 07:39:11;;;;;;;7.68;6.28;;;17.90;56.90;;;;;;6246932;22;20552;-86
2022/06/04 07:41:42;;;;;;;7.47;6.47;;;17.90;57.00;;;;;;6247918;23;20203;-88
2022/06/04 07:44:09;;;;;;;9.15;7.00;;;18.10;56.90;;;;;;6246190;22;20133;-88
2022/06/04 07:46:36;;;;;;;8.90;6.68;;;18.10;56.50;;;;;;6245906;22;20151;-91
2022/06/04 07:49:11;;;;;;;8.73;7.30;;;17.90;56.80;;;;;;6246439;22;20496;-89
2022/06/04 07:51:38;;;;;;;7.97;6.88;;;18.00;57.30;;;;;;6245451;23;20152;-89
2022/06/04 07:54:05;;;;;;;7.05;6.35;;;18.10;57.30;;;;;;6247657;23;20156;-88
2022/06/04 07:56:32;;;;;;;7.25;6.45;;;18.30;56.30;;;;;;6266218;22;20144;-88
2022/06/04 07:58:58;;;;;;;11.50;6.80;;;18.40;56.50;;;;;;6253462;23;20634;-87
2022/06/04 08:01:24;;;;;;;8.57;7.35;;;18.50;56.20;;;;;;6254255;23;20152;-88
2022/06/04 08:03:51;;;;;;;7.23;6.60;;;18.60;56.00;;;;;;6256669;22;20180;-88
2022/06/04 08:06:18;;;;;;;13.75;8.68;;;18.60;55.70;;;;;;6265186;22;20368;-88
2022/06/04 08:08:47;;;;;;;9.07;7.78;;;18.70;55.50;;;;;;6249361;22;20200;-87
2022/06/04 08:11:31;;;;;;;10.20;6.30;;;18.80;55.60;;;;;;6247429;23;20179;-88
2022/06/04 08:13:59;;;;;;;10.20;7.15;;;18.80;55.70;;;;;;6249790;22;20168;-87
2022/06/04 08:16:25;;;;;;;10.40;7.63;;;19.00;55.20;;;;;;6249859;22;20591;-87
2022/06/04 08:18:50;;;;;;;9.50;8.07;;;19.00;55.00;;;;;;6248808;23;20207;-88
2022/06/04 08:21:16;;;;;;;9.70;7.80;;;18.90;55.00;;;;;;6248173;22;20157;-88
2022/06/04 08:23:44;;;;;;;8.30;7.57;;;18.90;55.20;;;;;;6249850;22;20458;-87
2022/06/04 08:26:11;;;;;;;8.60;7.80;;;18.80;55.90;;;;;;6248796;22;20161;-87
2022/06/04 08:28:37;;;;;;;8.52;7.65;;;18.90;55.80;;;;;;6247195;23;20255;-87
2022/06/04 08:31:06;;;;;;;11.00;8.00;;;18.80;56.30;;;;;;6248224;22;20155;-86
2022/06/04 08:33:33;;;;;;;10.55;7.82;;;18.90;56.20;;;;;;6245133;23;20487;-85
2022/06/04 08:35:59;;;;;;;8.23;7.43;;;18.90;56.20;;;;;;6246085;23;20165;-86
2022/06/04 08:38:25;;;;;;;8.13;7.20;;;18.90;55.90;;;;;;6246219;23;20188;-85
2022/06/04 08:40:56;;;;;;;7.73;6.93;;;19.00;55.80;;;;;;6246255;23;20156;-85
2022/06/04 08:43:51;;;;;;;8.68;6.85;;;19.10;55.90;;;;;;6249794;22;20137;-85
2022/06/04 08:46:25;;;;;;;8.63;7.65;;;19.20;55.60;;;;;;6248386;23;20149;-84
2022/06/04 08:48:51;;;;;;;11.23;8.43;;;19.20;55.50;;;;;;6247615;23;20180;-84
2022/06/04 08:51:26;;;;;;;12.75;8.70;;;19.40;55.60;;;;;;6249595;22;20156;-85
2022/06/04 08:53:55;;;;;;;9.80;8.38;;;19.40;56.00;;;;;;6248073;23;20179;-85
2022/06/04 08:59:32;;;;;;;12.23;8.55;;;19.50;55.10;;;;;;6249519;23;20553;-85
2022/06/04 09:02:01;;;;;;;8.77;7.72;;;19.50;55.90;;;;;;6247787;23;20651;-86
2022/06/04 09:04:53;;;;;;;9.32;8.43;;;19.50;55.00;;;;;;6250458;22;20206;-84
2022/06/04 09:07:23;;;;;;;9.63;8.60;;;19.60;54.60;;;;;;6249533;22;20172;-85
2022/06/04 09:10:11;;;;;;;10.50;9.18;;;19.70;54.60;;;;;;6248416;23;20148;-84
2022/06/04 09:12:45;;;;;;;9.88;8.93;;;19.70;54.70;;;;;;6247167;23;20179;-85
2022/06/04 09:15:32;;;;;;;10.13;7.80;;;19.70;54.60;;;;;;6248369;23;20144;-86
2022/06/04 09:18:02;;;;;;;12.60;9.27;;;19.90;54.70;;;;;;6247847;23;20735;-84
2022/06/04 09:20:44;;;;;;;10.73;8.73;;;20.00;54.50;;;;;;6246134;23;20387;-84
2022/06/04 09:23:35;;;;;;;11.13;9.43;;;20.20;54.10;;;;;;6248539;22;20362;-83
2022/06/04 09:26:16;;;;;;;12.67;8.70;;;20.20;53.80;;;;;;6245747;23;20383;-85
2022/06/04 09:29:01;;;;;;;8.67;7.87;;;20.30;53.80;;;;;;6245621;23;20425;-85
2022/06/04 09:31:33;;;;;;;12.73;8.63;;;20.30;54.00;;;;;;6245858;23;20375;-85
2022/06/04 09:34:14;;;;;;;10.03;8.23;;;20.40;53.60;;;;;;6247143;23;20427;-85
2022/06/04 09:36:42;;;;;;;13.43;8.90;;;20.50;53.10;;;;;;6249871;22;20383;-85
2022/06/04 09:39:24;;;;;;;9.63;8.50;;;20.70;52.50;;;;;;6246228;23;20570;-86
2022/06/04 09:42:01;;;;;;;11.70;10.30;;;20.80;52.90;;;;;;6245406;23;20384;-84
2022/06/04 09:44:30;;;;;;;10.30;9.37;;;20.80;52.10;;;;;;6249547;22;20359;-84
2022/06/04 09:47:05;;;;;;;9.17;8.40;;;21.00;51.90;;;;;;6244909;23;20775;-84
2022/06/04 09:49:40;;;;;;;14.00;10.40;;;21.10;52.60;;;;;;6245967;23;20845;-84
2022/06/04 09:52:18;;;;;;;11.50;9.30;;;21.30;51.10;;;;;;6246087;23;20509;-84
2022/06/04 09:54:51;;;;;;;11.70;10.07;;;21.40;51.00;;;;;;6247372;22;20383;-84
2022/06/04 09:57:33;;;;;;;17.83;9.77;;;21.60;50.40;;;;;;6248128;22;20411;-84
2022/06/04 10:00:00;;;;;;;9.03;8.13;;;21.70;50.20;;;;;;6247915;23;20500;-84
2022/06/04 10:02:26;;;;;;;12.23;9.87;;;21.70;50.10;;;;;;6222966;23;20391;-84
2022/06/04 10:05:07;;;;;;;10.87;9.20;;;21.80;49.70;;;;;;6267759;23;20407;-85
2022/06/04 10:07:39;;;;;;;10.43;8.10;;;21.80;49.80;;;;;;6271777;22;20431;-84
2022/06/04 10:13:45;;;;;;;11.23;8.93;;;21.60;50.10;;;;;;6269305;23;20413;-84
2022/06/04 10:16:37;;;;;;;12.50;9.10;;;21.80;50.10;;;;;;6273301;22;20375;-85
2022/06/04 10:19:49;;;;;;;9.90;9.10;;;21.90;49.50;;;;;;6273993;22;20391;-85
2022/06/04 10:22:14;;;;;;;13.67;9.70;;;21.70;49.90;;;;;;6260520;22;20348;-83
2022/06/04 10:24:59;;;;;;;12.17;9.83;;;21.70;50.40;;;;;;6248565;22;20390;-85
2022/06/04 10:27:53;;;;;;;12.33;8.90;;;21.70;50.40;;;;;;6272963;22;20224;-85
2022/06/04 10:30:31;;;;;;;11.03;9.80;;;21.70;50.50;;;;;;6253796;23;20433;-84
2022/06/04 10:33:17;;;;;;;11.13;10.03;;;21.70;50.40;;;;;;6247504;23;20481;-84
2022/06/04 10:35:52;;;;;;;18.70;10.77;;;21.60;50.40;;;;;;6258367;23;20344;-85
2022/06/04 10:38:20;;;;;;;14.40;10.23;;;21.70;50.70;;;;;;6253110;23;20413;-84
2022/06/04 10:41:04;;;;;;;11.73;10.40;;;21.80;50.60;;;;;;6247331;22;20375;-85
2022/06/04 10:43:40;;;;;;;12.93;11.60;;;21.90;50.50;;;;;;6247383;23;20892;-85
2022/06/04 10:46:17;;;;;;;15.23;10.67;;;21.90;50.20;;;;;;6250305;23;20386;-85
2022/06/04 10:48:54;;;;;;;11.87;10.47;;;22.00;50.30;;;;;;6248829;22;20406;-85
2022/06/04 10:51:37;;;;;;;12.10;10.93;;;22.00;50.20;;;;;;6247205;23;20384;-86
2022/06/04 10:54:23;;;;;;;13.90;11.47;;;22.10;49.90;;;;;;6220970;23;20511;-85
2022/06/04 10:56:56;;;;;;;15.97;11.30;;;22.00;49.90;;;;;;6247533;23;20383;-85
2022/06/04 10:59:37;;;;;;;13.80;11.30;;;21.90;50.30;;;;;;6248475;22;20479;-85
2022/06/04 11:02:15;;;;;;;13.83;12.63;;;21.70;51.50;;;;;;6246384;23;20384;-83
2022/06/04 11:04:54;;;;;;;17.40;12.77;;;21.60;51.40;;;;;;6248284;23;20410;-86
2022/06/04 11:07:39;;;;;;;13.93;11.60;;;21.60;51.90;;;;;;6244746;23;20916;-85
2022/06/04 11:10:14;;;;;;;16.07;13.23;;;21.60;51.80;;;;;;6246487;23;20380;-84
2022/06/04 11:12:50;;;;;;;16.37;12.17;;;21.60;51.20;;;;;;6247051;22;20407;-85
2022/06/04 11:15:25;;;;;;;14.17;12.17;;;21.60;51.30;;;;;;6247582;22;20366;-84
2022/06/04 11:18:06;;;;;;;13.00;11.70;;;21.60;51.60;;;;;;6221637;23;20407;-85
2022/06/04 11:20:39;;;;;;;16.80;11.80;;;21.50;52.10;;;;;;6251210;23;20356;-85
2022/06/04 11:23:44;;;;;;;12.30;11.07;;;21.60;52.30;;;;;;6247589;23;20376;-85
2022/06/04 11:26:23;;;;;;;14.13;12.63;;;21.50;52.40;;;;;;6248006;23;20478;-86
2022/06/04 11:28:49;;;;;;;15.63;11.03;;;21.50;52.30;;;;;;6249446;23;20465;-88
2022/06/04 11:31:21;;;;;;;13.90;12.50;;;21.60;52.50;;;;;;6249338;22;20380;-85
2022/06/04 11:33:50;;;;;;;11.40;10.30;;;21.70;52.20;;;;;;6250577;23;20458;-85
2022/06/04 11:36:39;;;;;;;16.70;11.40;;;21.70;52.80;;;;;;6251757;23;20876;-85
2022/06/04 11:39:07;;;;;;;13.97;12.20;;;21.80;52.20;;;;;;6250117;23;20404;-86
2022/06/04 11:41:46;;;;;;;18.67;12.63;;;21.80;51.90;;;;;;6250579;22;20391;-85
2022/06/04 11:44:27;;;;;;;16.27;12.07;;;22.00;51.60;;;;;;6249244;23;20822;-86
2022/06/04 11:47:24;;;;;;;13.00;11.37;;;22.00;51.20;;;;;;6246398;23;20363;-85
2022/06/04 11:50:08;;;;;;;14.57;12.80;;;22.00;51.60;;;;;;6246138;23;20383;-86
2022/06/04 11:52:43;;;;;;;14.70;13.20;;;22.00;51.50;;;;;;6248908;23;20434;-85
2022/06/04 11:55:24;;;;;;;13.83;11.97;;;22.10;51.40;;;;;;6269315;22;20360;-86
2022/06/04 11:58:15;;;;;;;15.10;13.17;;;22.10;51.50;;;;;;6271695;22;20434;-86
2022/06/04 12:00:44;;;;;;;13.83;12.43;;;22.10;51.60;;;;;;6272710;22;20475;-86
2022/06/04 12:03:28;;;;;;;15.70;12.63;;;22.10;51.40;;;;;;6272959;22;20380;-86
2022/06/04 12:06:26;;;;;;;16.80;11.77;;;22.10;51.40;;;;;;6273258;22;20455;-86
2022/06/04 12:12:43;;;;;;;13.87;11.93;;;22.20;51.50;;;;;;6273317;23;20443;-86
2022/06/04 12:15:32;;;;;;;16.37;12.13;;;22.30;51.10;;;;;;6273864;22;20379;-86
2022/06/04 12:18:20;;;;;;;12.90;11.53;;;22.40;51.10;;;;;;6273885;22;20445;-86
2022/06/04 12:26:38;;;;;;;14.73;12.60;;;22.40;51.00;;;;;;6250124;23;20455;-86
2022/06/04 12:29:35;;;;;;;14.23;12.30;;;22.50;50.80;;;;;;6248511;23;20408;-86
2022/06/04 12:32:23;;;;;;;14.07;12.67;;;22.40;50.70;;;;;;6249650;23;20383;-86
2022/06/04 12:35:03;;;;;;;17.27;12.80;;;22.50;50.50;;;;;;6251571;23;20367;-86
2022/06/04 12:37:34;;;;;;;13.83;11.33;;;22.60;50.00;;;;;;6249042;23;20438;-86
2022/06/04 12:40:33;;;;;;;16.07;13.33;;;22.70;50.20;;;;;;6251404;23;20386;-86
2022/06/04 12:43:18;;;;;;;15.30;12.47;;;22.70;50.10;;;;;;6250224;23;20387;-85
2022/06/04 12:45:52;;;;;;;17.10;11.90;;;22.70;50.20;;;;;;6249007;23;20391;-86
2022/06/04 12:48:18;;;;;;;15.57;12.03;;;22.80;50.40;;;;;;6250980;23;20506;-86
2022/06/04 12:50:50;;;;;;;13.37;11.17;;;22.80;51.10;;;;;;6258708;22;20391;-86
2022/06/04 12:53:19;;;;;;;14.33;12.07;;;22.90;50.20;;;;;;6259252;23;20187;-87
2022/06/04 12:55:50;;;;;;;14.43;13.00;;;23.00;49.90;;;;;;6258754;23;20387;-86
2022/06/04 12:58:40;;;;;;;15.43;12.10;;;23.10;49.70;;;;;;6258441;23;20473;-86
2022/06/04 13:01:25;;;;;;;14.90;12.77;;;23.30;49.60;;;;;;6258335;22;20880;-86
2022/06/04 13:04:11;;;;;;;12.90;11.73;;;23.40;49.20;;;;;;6252737;23;20390;-86
2022/06/04 13:06:45;;;;;;;20.10;13.53;;;23.30;49.60;;;;;;6254282;22;20372;-85
2022/06/04 13:09:43;;;;;;;14.13;11.67;;;23.30;49.80;;;;;;6252317;23;20429;-85
2022/06/04 13:12:47;;;;;;;13.97;11.00;;;23.20;50.00;;;;;;6251706;23;20448;-86
2022/06/04 13:15:28;;;;;;;16.80;12.67;;;23.40;49.50;;;;;;6252532;22;20440;-86
2022/06/04 13:17:54;;;;;;;11.67;10.47;;;23.40;49.40;;;;;;6251167;23;20438;-87
2022/06/04 13:20:38;;;;;;;15.37;11.93;;;23.40;49.60;;;;;;6250991;23;20380;-87
2022/06/04 13:23:37;;;;;;;12.57;11.47;;;23.50;49.30;;;;;;6252917;22;20460;-86
2022/06/04 13:26:06;;;;;;;16.70;13.43;;;23.60;49.10;;;;;;6250812;23;20391;-86
2022/06/04 13:28:35;;;;;;;16.57;11.97;;;23.60;49.10;;;;;;6250658;22;20465;-85
2022/06/04 13:31:04;;;;;;;17.60;12.30;;;23.60;49.50;;;;;;6251390;23;20845;-85
2022/06/04 13:33:38;;;;;;;12.83;10.63;;;23.70;49.10;;;;;;6250129;23;20455;-86
2022/06/04 13:36:05;;;;;;;17.70;12.33;;;23.80;48.90;;;;;;6252927;22;20385;-86
2022/06/04 13:38:40;;;;;;;11.67;10.30;;;23.80;48.70;;;;;;6250855;23;20453;-86
2022/06/04 13:44:22;;;;;;;12.27;10.90;;;23.90;49.10;;;;;;6252220;23;20430;-86
2022/06/04 13:46:48;;;;;;;14.70;11.47;;;23.90;49.20;;;;;;6250702;23;20387;-86